Time;durP1;ratioP1;P1;durP2;ratioP2;P2;SDS_P1;SDS_P2;PMS_P1;PMS_P2;Temp;Humidity;BMP_temperature;BMP_pressure;BME280_temperature;BME280_humidity;BME280_pressure;Samples;Min_cycle;Max_cycle;Signal;HPM_P1;HPM_P2
2022/10/07 00:00:47;;;;;;;2.75;2.20;;;;;;;;;;6117947;23;20169;-75
2022/10/07 00:03:13;;;;;;;4.53;2.60;;;;;;;;;;6119012;23;20004;-74
2022/10/07 00:05:40;;;;;;;3.00;2.10;;;;;;;;;;6116999;23;20006;-73
2022/10/07 00:08:06;;;;;;;3.10;2.40;;;;;;;;;;6116512;23;20013;-74
2022/10/07 00:10:36;;;;;;;2.22;2.00;;;;;;;;;;6118377;23;20089;-74
2022/10/07 00:13:03;;;;;;;2.88;2.17;;;;;;;;;;6119461;23;20002;-73
2022/10/07 00:15:29;;;;;;;3.40;2.42;;;;;;;;;;6119579;23;20009;-73
2022/10/07 00:17:55;;;;;;;2.67;2.28;;;;;;;;;;6118395;23;20057;-74
2022/10/07 00:20:21;;;;;;;3.13;2.05;;;;;;;;;;6119859;23;20065;-73
2022/10/07 00:22:48;;;;;;;5.10;2.28;;;;;;;;;;6119681;23;20013;-74
2022/10/07 00:25:14;;;;;;;2.10;1.80;;;;;;;;;;6119705;23;20002;-73
2022/10/07 00:27:40;;;;;;;4.03;2.13;;;;;;;;;;6119420;23;20073;-73
2022/10/07 00:30:06;;;;;;;4.75;2.65;;;;;;;;;;6119330;23;20006;-73
2022/10/07 00:32:32;;;;;;;3.42;2.13;;;;;;;;;;6119890;23;20002;-73
2022/10/07 00:34:58;;;;;;;2.70;2.30;;;;;;;;;;6119376;23;20312;-73
2022/10/07 00:37:25;;;;;;;3.58;2.40;;;;;;;;;;6119776;23;20435;-73
2022/10/07 00:39:51;;;;;;;2.60;2.13;;;;;;;;;;6118122;23;20005;-73
2022/10/07 00:42:17;;;;;;;3.47;2.05;;;;;;;;;;6119855;23;20925;-76
2022/10/07 00:44:44;;;;;;;3.53;2.50;;;;;;;;;;6119447;23;20002;-73
2022/10/07 00:47:16;;;;;;;5.93;2.60;;;;;;;;;;6118332;23;20006;-73
2022/10/07 00:49:48;;;;;;;4.07;2.85;;;;;;;;;;6094162;23;20010;-74
2022/10/07 00:52:15;;;;;;;;;;;;;;;;;;6120324;23;20073;-73
2022/10/07 00:54:41;;;;;;;5.85;2.38;;;;;;;;;;6102628;23;19928;-73
2022/10/07 00:57:07;;;;;;;2.40;2.20;;;;;;;;;;6120051;23;20024;-74
2022/10/07 00:59:34;;;;;;;3.20;2.60;;;;;;;;;;6118095;23;20245;-72
2022/10/07 01:02:00;;;;;;;2.67;2.20;;;;;;;;;;6119005;23;20077;-74
2022/10/07 01:04:26;;;;;;;3.15;2.20;;;;;;;;;;6119107;23;20093;-73
2022/10/07 01:06:52;;;;;;;3.35;2.10;;;;;;;;;;6119270;23;20002;-73
2022/10/07 01:09:20;;;;;;;3.17;2.30;;;;;;;;;;6117382;23;20005;-74
2022/10/07 01:11:46;;;;;;;3.63;2.60;;;;;;;;;;6119151;23;20002;-73
2022/10/07 01:14:15;;;;;;;3.00;2.25;;;;;;;;;;6118948;23;20630;-76
2022/10/07 01:16:46;;;;;;;2.47;2.10;;;;;;;;;;6119742;23;20423;-72
2022/10/07 01:19:27;;;;;;;3.63;2.80;;;;;;;;;;6119328;23;20057;-74
2022/10/07 01:22:12;;;;;;;2.72;2.10;;;;;;;;;;6119257;23;20033;-76
2022/10/07 01:24:38;;;;;;;2.60;2.00;;;;;;;;;;6118131;23;20427;-73
2022/10/07 01:27:18;;;;;;;2.75;2.20;;;;;;;;;;6119081;23;20006;-74
2022/10/07 01:29:54;;;;;;;3.67;2.15;;;;;;;;;;6119283;23;20077;-74
2022/10/07 01:32:32;;;;;;;2.30;2.03;;;;;;;;;;6117265;23;20006;-74
2022/10/07 01:34:59;;;;;;;3.70;2.33;;;;;;;;;;6118963;23;20006;-74
2022/10/07 01:37:26;;;;;;;2.72;2.03;;;;;;;;;;6119235;23;20420;-76
2022/10/07 01:39:55;;;;;;;3.60;2.10;;;;;;;;;;6119340;23;19998;-74
2022/10/07 01:42:24;;;;;;;3.85;2.15;;;;;;;;;;6117800;23;20802;-75
2022/10/07 01:44:53;;;;;;;4.05;1.92;;;;;;;;;;6119132;23;20582;-73
2022/10/07 01:47:19;;;;;;;2.60;2.10;;;;;;;;;;6119386;23;20001;-73
2022/10/07 01:49:49;;;;;;;3.38;2.50;;;;;;;;;;6119109;23;20006;-73
2022/10/07 01:52:18;;;;;;;3.28;2.20;;;;;;;;;;6117691;23;20068;-73
2022/10/07 01:54:51;;;;;;;3.08;2.15;;;;;;;;;;6118659;23;20018;-74
2022/10/07 01:57:17;;;;;;;2.60;1.90;;;;;;;;;;6118982;23;20726;-73
2022/10/07 01:59:58;;;;;;;34.65;3.15;;;;;;;;;;6119025;23;19998;-73
2022/10/07 02:02:26;;;;;;;3.95;2.42;;;;;;;;;;6119087;23;20002;-75
2022/10/07 02:04:56;;;;;;;3.17;2.38;;;;;;;;;;6118784;23;20002;-73
2022/10/07 02:07:25;;;;;;;3.00;2.28;;;;;;;;;;6117541;23;20032;-74
2022/10/07 02:09:57;;;;;;;3.17;2.40;;;;;;;;;;6119039;23;20443;-74
2022/10/07 02:12:29;;;;;;;2.30;2.10;;;;;;;;;;6119539;23;19998;-73
2022/10/07 02:15:02;;;;;;;2.10;1.90;;;;;;;;;;6118545;23;20474;-73
2022/10/07 02:17:32;;;;;;;3.50;2.30;;;;;;;;;;6118423;23;20013;-73
2022/10/07 02:19:59;;;;;;;3.95;2.30;;;;;;;;;;6117059;23;20331;-73
2022/10/07 02:22:27;;;;;;;2.50;2.30;;;;;;;;;;6118692;23;19998;-74
2022/10/07 02:24:54;;;;;;;2.95;2.10;;;;;;;;;;6118717;23;20029;-74
2022/10/07 02:27:24;;;;;;;3.55;2.22;;;;;;;;;;6118832;23;20006;-74
2022/10/07 02:29:52;;;;;;;3.22;1.98;;;;;;;;;;6117066;23;20021;-73
2022/10/07 02:32:20;;;;;;;4.38;2.28;;;;;;;;;;6118402;23;20009;-74
2022/10/07 02:34:49;;;;;;;4.63;2.53;;;;;;;;;;6118670;23;20038;-74
2022/10/07 02:37:19;;;;;;;3.33;2.45;;;;;;;;;;6118158;23;20013;-74
2022/10/07 02:39:46;;;;;;;2.47;2.20;;;;;;;;;;6119026;23;20015;-73
2022/10/07 02:42:24;;;;;;;2.40;2.15;;;;;;;;;;6118730;23;19998;-73
2022/10/07 02:44:53;;;;;;;4.05;2.33;;;;;;;;;;6118053;23;20008;-74
2022/10/07 02:47:24;;;;;;;2.78;2.30;;;;;;;;;;6116855;23;20193;-73
2022/10/07 02:49:52;;;;;;;3.13;2.20;;;;;;;;;;6113222;23;20443;-74
2022/10/07 02:52:19;;;;;;;3.17;2.50;;;;;;;;;;6112008;23;20006;-74
2022/10/07 02:54:51;;;;;;;3.97;2.17;;;;;;;;;;6093506;23;20053;-74
2022/10/07 02:57:19;;;;;;;3.00;2.50;;;;;;;;;;6112018;23;20014;-73
2022/10/07 02:59:46;;;;;;;2.60;2.00;;;;;;;;;;6112000;23;20001;-75
2022/10/07 03:02:16;;;;;;;2.67;2.25;;;;;;;;;;6110833;23;20383;-73
2022/10/07 03:04:42;;;;;;;4.00;2.72;;;;;;;;;;6111521;23;20507;-74
2022/10/07 03:07:11;;;;;;;4.50;2.33;;;;;;;;;;6111883;23;20252;-73
2022/10/07 03:09:37;;;;;;;2.67;2.15;;;;;;;;;;6110677;23;20014;-73
2022/10/07 03:12:03;;;;;;;4.30;2.40;;;;;;;;;;6111607;23;20081;-77
2022/10/07 03:14:29;;;;;;;3.72;2.28;;;;;;;;;;6112093;23;20065;-73
2022/10/07 03:16:55;;;;;;;2.97;2.20;;;;;;;;;;6110172;23;20005;-73
2022/10/07 03:19:22;;;;;;;4.18;2.35;;;;;;;;;;6108724;23;20494;-75
2022/10/07 03:21:49;;;;;;;2.38;2.17;;;;;;;;;;6107108;23;20011;-74
2022/10/07 03:24:18;;;;;;;2.58;2.10;;;;;;;;;;6108946;23;20002;-75
2022/10/07 03:26:44;;;;;;;4.25;2.30;;;;;;;;;;6108922;23;20087;-76
2022/10/07 03:29:10;;;;;;;2.42;2.20;;;;;;;;;;6106778;23;20006;-74
2022/10/07 03:31:37;;;;;;;3.70;2.30;;;;;;;;;;6106690;23;20032;-74
2022/10/07 03:34:03;;;;;;;3.28;2.45;;;;;;;;;;6109217;23;20010;-76
2022/10/07 03:36:29;;;;;;;3.88;2.28;;;;;;;;;;6108260;23;20006;-74
2022/10/07 03:38:55;;;;;;;2.75;2.33;;;;;;;;;;6109161;23;20386;-75
2022/10/07 03:41:21;;;;;;;2.85;2.22;;;;;;;;;;6107494;23;20006;-73
2022/10/07 03:43:48;;;;;;;2.88;2.58;;;;;;;;;;6109191;23;20014;-75
2022/10/07 03:46:14;;;;;;;2.40;1.88;;;;;;;;;;6108850;23;20006;-76
2022/10/07 03:48:40;;;;;;;3.80;2.20;;;;;;;;;;6110537;23;20145;-76
2022/10/07 03:51:06;;;;;;;3.83;2.38;;;;;;;;;;6110039;23;20022;-74
2022/10/07 03:53:32;;;;;;;2.88;2.00;;;;;;;;;;6113658;23;20012;-75
2022/10/07 03:55:58;;;;;;;3.13;2.50;;;;;;;;;;6113794;23;20343;-74
2022/10/07 03:58:24;;;;;;;3.15;2.55;;;;;;;;;;6113848;23;20140;-74
2022/10/07 04:00:51;;;;;;;5.03;2.25;;;;;;;;;;6111942;23;19994;-73
2022/10/07 04:03:17;;;;;;;5.32;2.30;;;;;;;;;;6113693;23;19998;-73
2022/10/07 04:05:44;;;;;;;3.53;2.00;;;;;;;;;;6113278;23;20093;-74
2022/10/07 04:08:16;;;;;;;3.50;2.13;;;;;;;;;;6114641;23;20319;-73
2022/10/07 04:10:42;;;;;;;2.42;2.22;;;;;;;;;;6112277;23;20014;-75
2022/10/07 04:13:08;;;;;;;3.92;2.28;;;;;;;;;;6113975;23;20013;-75
2022/10/07 04:15:36;;;;;;;4.10;2.42;;;;;;;;;;6113501;23;20077;-73
2022/10/07 04:18:02;;;;;;;3.40;2.20;;;;;;;;;;6111601;23;20021;-74
2022/10/07 04:20:28;;;;;;;4.20;2.42;;;;;;;;;;6113635;23;20327;-76
2022/10/07 04:22:54;;;;;;;2.92;2.50;;;;;;;;;;6087835;23;20431;-74
2022/10/07 04:25:33;;;;;;;3.90;2.17;;;;;;;;;;6113024;23;20567;-73
2022/10/07 04:27:59;;;;;;;3.58;2.60;;;;;;;;;;6086221;23;20014;-74
2022/10/07 04:30:27;;;;;;;3.38;2.05;;;;;;;;;;6113713;23;19998;-73
2022/10/07 04:32:53;;;;;;;2.97;2.40;;;;;;;;;;6113860;23;20569;-73
2022/10/07 04:35:23;;;;;;;2.88;2.42;;;;;;;;;;6113571;23;20025;-73
2022/10/07 04:37:49;;;;;;;2.97;2.20;;;;;;;;;;6113503;23;20036;-74
2022/10/07 04:40:15;;;;;;;5.90;2.60;;;;;;;;;;6112489;23;20076;-73
2022/10/07 04:45:26;;;;;;;5.80;2.30;;;;;;;;;;6110465;23;20097;-72
2022/10/07 04:47:52;;;;;;;2.75;2.35;;;;;;;;;;6111040;23;20358;-74
2022/10/07 04:50:18;;;;;;;3.50;2.20;;;;;;;;;;6108750;23;20498;-74
2022/10/07 04:52:45;;;;;;;2.60;2.40;;;;;;;;;;6111256;23;20028;-69
2022/10/07 04:55:13;;;;;;;2.70;2.35;;;;;;;;;;6109519;23;20014;-74
2022/10/07 04:57:39;;;;;;;3.83;2.30;;;;;;;;;;6110632;23;20101;-73
2022/10/07 05:00:07;;;;;;;3.40;2.20;;;;;;;;;;6109822;23;19998;-73
2022/10/07 05:02:33;;;;;;;3.08;2.30;;;;;;;;;;6082977;23;20014;-74
2022/10/07 05:04:59;;;;;;;4.30;2.65;;;;;;;;;;6109724;23;20064;-74
2022/10/07 05:07:26;;;;;;;4.75;2.88;;;;;;;;;;6110260;23;20016;-74
2022/10/07 05:09:52;;;;;;;5.35;2.22;;;;;;;;;;6109928;23;20609;-74
2022/10/07 05:12:18;;;;;;;3.13;2.50;;;;;;;;;;6110774;23;20010;-73
2022/10/07 05:14:45;;;;;;;3.60;2.20;;;;;;;;;;6108558;23;20002;-74
2022/10/07 05:17:12;;;;;;;3.03;2.53;;;;;;;;;;6109718;23;20017;-74
2022/10/07 05:19:38;;;;;;;5.28;2.63;;;;;;;;;;6108362;23;20088;-74
2022/10/07 05:22:05;;;;;;;2.83;2.55;;;;;;;;;;6110303;23;20010;-73
2022/10/07 05:24:31;;;;;;;15.45;2.55;;;;;;;;;;6108692;23;20076;-74
2022/10/07 05:26:58;;;;;;;4.50;2.72;;;;;;;;;;6109952;23;20037;-74
2022/10/07 05:29:24;;;;;;;16.75;6.43;;;;;;;;;;6110324;23;20478;-75
2022/10/07 05:31:50;;;;;;;11.43;6.15;;;;;;;;;;6109816;23;20013;-74
2022/10/07 05:34:16;;;;;;;3.55;2.60;;;;;;;;;;6110772;23;20133;-74
2022/10/07 05:36:43;;;;;;;2.72;2.50;;;;;;;;;;6107520;23;20572;-73
2022/10/07 05:39:10;;;;;;;5.40;2.95;;;;;;;;;;6110152;23;20426;-73
2022/10/07 05:41:38;;;;;;;6.18;2.45;;;;;;;;;;6109836;23;20009;-74
2022/10/07 05:44:04;;;;;;;4.95;2.50;;;;;;;;;;6109597;23;20009;-75
2022/10/07 05:46:30;;;;;;;5.30;2.53;;;;;;;;;;6083810;23;20073;-75
2022/10/07 05:48:56;;;;;;;6.15;3.03;;;;;;;;;;6108363;23;20420;-75
2022/10/07 05:51:24;;;;;;;10.88;2.58;;;;;;;;;;6109917;23;20515;-76
2022/10/07 05:53:53;;;;;;;10.00;3.25;;;;;;;;;;6109399;23;20006;-76
2022/10/07 05:56:23;;;;;;;4.32;3.13;;;;;;;;;;6109511;23;20017;-75
2022/10/07 05:58:50;;;;;;;10.48;4.22;;;;;;;;;;6109572;23;20013;-75
2022/10/07 06:01:17;;;;;;;6.88;4.45;;;;;;;;;;6083502;23;20033;-75
2022/10/07 06:03:48;;;;;;;10.70;5.60;;;;;;;;;;6106933;23;20006;-75
2022/10/07 06:06:14;;;;;;;8.50;4.75;;;;;;;;;;6083498;23;20101;-74
2022/10/07 06:08:40;;;;;;;7.00;3.08;;;;;;;;;;6109721;23;20016;-74
2022/10/07 06:13:52;;;;;;;16.63;3.60;;;;;;;;;;6110747;23;20020;-74
2022/10/07 06:16:18;;;;;;;4.03;2.80;;;;;;;;;;6108064;23;20545;-73
2022/10/07 06:18:46;;;;;;;4.50;3.00;;;;;;;;;;6107205;23;20080;-73
2022/10/07 06:21:13;;;;;;;4.88;2.88;;;;;;;;;;6084281;23;20484;-75
2022/10/07 06:23:39;;;;;;;4.38;2.65;;;;;;;;;;6084366;23;20010;-75
2022/10/07 06:26:06;;;;;;;8.27;3.25;;;;;;;;;;6109569;23;20820;-74
2022/10/07 06:28:33;;;;;;;7.47;3.08;;;;;;;;;;6108263;23;20462;-75
2022/10/07 06:31:03;;;;;;;4.55;3.22;;;;;;;;;;6109121;23;20025;-75
2022/10/07 06:33:29;;;;;;;3.60;2.88;;;;;;;;;;6109822;23;20077;-74
2022/10/07 06:35:58;;;;;;;8.48;3.30;;;;;;;;;;6108424;23;20010;-74
2022/10/07 06:38:24;;;;;;;5.32;2.88;;;;;;;;;;6107848;23;20081;-75
2022/10/07 06:41:00;;;;;;;9.95;3.80;;;;;;;;;;6110055;23;20423;-75
2022/10/07 06:43:26;;;;;;;10.65;3.38;;;;;;;;;;6109215;23;20014;-75
2022/10/07 06:45:52;;;;;;;6.00;3.22;;;;;;;;;;6107360;23;20012;-74
2022/10/07 06:48:19;;;;;;;9.10;4.03;;;;;;;;;;6109752;23;20013;-74
2022/10/07 06:50:51;;;;;;;7.03;3.72;;;;;;;;;;6110173;23;20028;-74
2022/10/07 06:53:18;;;;;;;10.52;5.53;;;;;;;;;;6109732;23;20010;-74
2022/10/07 06:55:44;;;;;;;12.60;5.03;;;;;;;;;;6108831;23;20014;-75
2022/10/07 06:58:10;;;;;;;9.35;5.07;;;;;;;;;;6109093;23;20018;-74
2022/10/07 07:00:38;;;;;;;13.93;5.70;;;;;;;;;;6081794;23;20518;-75
2022/10/07 07:03:04;;;;;;;6.25;4.05;;;;;;;;;;6109006;23;20016;-75
2022/10/07 07:05:40;;;;;;;6.63;3.80;;;;;;;;;;6108761;23;20199;-74
2022/10/07 07:08:06;;;;;;;9.15;3.95;;;;;;;;;;6109947;23;20044;-74
2022/10/07 07:10:36;;;;;;;6.50;4.20;;;;;;;;;;6107934;23;20030;-76
2022/10/07 07:13:02;;;;;;;5.88;3.75;;;;;;;;;;6107283;23;20010;-75
2022/10/07 07:15:28;;;;;;;5.50;3.28;;;;;;;;;;6108828;23;20006;-76
2022/10/07 07:17:54;;;;;;;5.78;3.00;;;;;;;;;;6109038;23;20020;-75
2022/10/07 07:20:21;;;;;;;4.35;3.95;;;;;;;;;;6108009;23;20005;-74
2022/10/07 07:22:48;;;;;;;5.72;4.25;;;;;;;;;;6106470;23;20603;-76
2022/10/07 07:25:14;;;;;;;8.68;5.00;;;;;;;;;;6083965;23;20436;-75
2022/10/07 07:27:40;;;;;;;6.18;3.47;;;;;;;;;;6108773;23;20466;-74
2022/10/07 07:30:07;;;;;;;6.03;3.58;;;;;;;;;;6109050;23;20017;-74
2022/10/07 07:32:33;;;;;;;3.67;2.70;;;;;;;;;;6109638;23;20567;-75
2022/10/07 07:35:00;;;;;;;4.28;2.83;;;;;;;;;;6107201;23;20006;-75
2022/10/07 07:37:29;;;;;;;4.25;2.67;;;;;;;;;;6109044;23;20042;-75
2022/10/07 07:39:55;;;;;;;2.75;2.15;;;;;;;;;;6110018;23;20013;-75
2022/10/07 07:42:21;;;;;;;3.53;2.45;;;;;;;;;;6108613;23;20006;-74
2022/10/07 07:44:48;;;;;;;4.30;2.40;;;;;;;;;;6108605;23;20057;-74
2022/10/07 07:47:16;;;;;;;2.55;2.30;;;;;;;;;;6107284;23;20426;-75
2022/10/07 07:49:42;;;;;;;2.70;2.20;;;;;;;;;;6109984;23;20864;-75
2022/10/07 07:52:08;;;;;;;2.35;2.00;;;;;;;;;;6108948;23;20010;-75
2022/10/07 07:54:40;;;;;;;2.50;2.22;;;;;;;;;;6109184;23;20103;-75
2022/10/07 07:57:06;;;;;;;3.10;2.67;;;;;;;;;;6107563;23;20291;-76
2022/10/07 07:59:32;;;;;;;3.92;2.30;;;;;;;;;;6108653;23;20025;-74
2022/10/07 08:01:59;;;;;;;5.18;2.53;;;;;;;;;;6108873;23;20239;-75
2022/10/07 08:04:25;;;;;;;2.72;2.30;;;;;;;;;;6109960;23;19982;-75
2022/10/07 08:06:51;;;;;;;3.90;2.15;;;;;;;;;;6106437;23;19998;-77
2022/10/07 08:09:18;;;;;;;3.08;2.35;;;;;;;;;;6106702;23;20244;-76
2022/10/07 08:11:44;;;;;;;5.30;2.40;;;;;;;;;;6107166;23;20010;-75
2022/10/07 08:14:14;;;;;;;2.90;2.33;;;;;;;;;;6108016;23;20020;-75
2022/10/07 08:16:42;;;;;;;4.50;2.85;;;;;;;;;;6081926;23;20029;-75
2022/10/07 08:19:08;;;;;;;4.63;2.55;;;;;;;;;;6103744;23;20018;-77
2022/10/07 08:21:35;;;;;;;2.92;2.65;;;;;;;;;;6081668;23;20169;-75
2022/10/07 08:24:02;;;;;;;4.32;2.65;;;;;;;;;;6108786;23;20415;-76
2022/10/07 08:26:30;;;;;;;4.13;2.70;;;;;;;;;;6108207;23;20077;-76
2022/10/07 08:29:00;;;;;;;7.30;3.05;;;;;;;;;;6108960;23;20013;-74
2022/10/07 08:31:27;;;;;;;3.15;2.67;;;;;;;;;;6108239;23;20006;-74
2022/10/07 08:33:55;;;;;;;3.80;2.72;;;;;;;;;;6107335;23;20435;-76
2022/10/07 08:36:22;;;;;;;4.10;3.17;;;;;;;;;;6082886;23;20536;-76
2022/10/07 08:38:49;;;;;;;5.38;3.80;;;;;;;;;;6109316;23;20024;-76
2022/10/07 08:41:24;;;;;;;5.53;2.97;;;;;;;;;;6108507;23;20006;-75
2022/10/07 08:43:51;;;;;;;3.55;3.13;;;;;;;;;;6109990;23;20037;-76
2022/10/07 08:46:22;;;;;;;4.25;3.20;;;;;;;;;;6109390;23;20005;-75
2022/10/07 08:48:54;;;;;;;4.97;3.60;;;;;;;;;;6110991;23;20085;-75
2022/10/07 08:51:24;;;;;;;3.60;3.10;;;;;;;;;;6107675;23;20006;-75
2022/10/07 08:54:01;;;;;;;3.70;3.03;;;;;;;;;;6109967;23;20143;-76
2022/10/07 08:56:29;;;;;;;4.07;3.65;;;;;;;;;;6108530;23;20063;-75
2022/10/07 08:59:01;;;;;;;4.30;3.50;;;;;;;;;;6109583;23;20062;-75
2022/10/07 09:01:36;;;;;;;8.07;5.05;;;;;;;;;;6110429;23;20130;-76
2022/10/07 09:04:21;;;;;;;4.43;3.38;;;;;;;;;;6109762;23;20150;-73
2022/10/07 09:06:55;;;;;;;4.28;2.80;;;;;;;;;;6106832;23;20006;-75
2022/10/07 09:09:36;;;;;;;4.95;2.35;;;;;;;;;;6109853;23;20009;-75
2022/10/07 09:12:04;;;;;;;5.28;2.78;;;;;;;;;;6110852;23;20017;-76
2022/10/07 09:14:33;;;;;;;3.45;2.40;;;;;;;;;;6109556;23;20010;-75
2022/10/07 09:17:12;;;;;;;4.75;2.70;;;;;;;;;;6105887;23;20238;-75
2022/10/07 09:19:41;;;;;;;6.13;4.05;;;;;;;;;;6106989;23;20022;-75
2022/10/07 09:22:16;;;;;;;6.45;4.13;;;;;;;;;;6109811;23;20116;-73
2022/10/07 09:24:42;;;;;;;4.85;3.40;;;;;;;;;;6110137;23;20093;-74
2022/10/07 09:27:12;;;;;;;6.63;3.13;;;;;;;;;;6110739;23;20065;-74
2022/10/07 09:29:38;;;;;;;2.60;2.35;;;;;;;;;;6108390;23;20037;-75
2022/10/07 09:32:05;;;;;;;2.90;2.47;;;;;;;;;;6109611;23;20002;-75
2022/10/07 09:34:31;;;;;;;2.95;2.40;;;;;;;;;;6110412;23;20016;-75
2022/10/07 09:37:09;;;;;;;2.55;2.10;;;;;;;;;;6083811;23;20459;-74
2022/10/07 09:39:36;;;;;;;4.38;2.42;;;;;;;;;;6113263;23;20133;-74
2022/10/07 09:42:03;;;;;;;3.42;1.90;;;;;;;;;;6112455;23;20009;-74
2022/10/07 09:44:29;;;;;;;3.78;2.55;;;;;;;;;;6085407;23;20407;-74
2022/10/07 09:46:58;;;;;;;2.65;2.05;;;;;;;;;;6113046;23;20073;-75
2022/10/07 09:49:27;;;;;;;3.95;2.25;;;;;;;;;;6087050;23;20362;-74
2022/10/07 09:52:26;;;;;;;2.17;1.85;;;;;;;;;;6111116;23;20009;-74
2022/10/07 09:54:57;;;;;;;2.80;2.30;;;;;;;;;;6047635;23;20022;-75
2022/10/07 09:57:38;;;;;;;3.22;2.17;;;;;;;;;;6107656;23;20569;-74
2022/10/07 10:00:13;;;;;;;2.60;2.08;;;;;;;;;;6110070;23;20045;-73
2022/10/07 10:02:40;;;;;;;2.20;2.00;;;;;;;;;;6109625;23;20057;-74
2022/10/07 10:05:18;;;;;;;2.65;1.85;;;;;;;;;;6109871;23;20013;-74
2022/10/07 10:07:46;;;;;;;3.20;1.95;;;;;;;;;;6109961;23;20461;-74
2022/10/07 10:10:17;;;;;;;2.30;1.83;;;;;;;;;;6108141;23;20006;-75
2022/10/07 10:12:47;;;;;;;2.37;1.93;;;;;;;;;;6083590;23;20482;-73
2022/10/07 10:15:40;;;;;;;3.23;1.97;;;;;;;;;;6109941;23;20545;-73
2022/10/07 10:18:25;;;;;;;4.82;2.28;;;;;;;;;;6072578;23;20375;-73
2022/10/07 10:20:51;;;;;;;3.63;2.03;;;;;;;;;;6108603;23;20013;-74
2022/10/07 10:23:29;;;;;;;2.33;1.90;;;;;;;;;;6109375;23;20013;-74
2022/10/07 10:26:26;;;;;;;2.78;1.80;;;;;;;;;;6108831;23;20599;-74
2022/10/07 10:29:10;;;;;;;3.00;1.77;;;;;;;;;;6083959;23;20096;-75
2022/10/07 10:31:45;;;;;;;3.17;1.92;;;;;;;;;;6108964;23;20013;-75
2022/10/07 10:34:17;;;;;;;4.22;2.30;;;;;;;;;;6105658;23;20429;-74
2022/10/07 10:36:48;;;;;;;3.05;1.80;;;;;;;;;;6109044;23;20085;-75
2022/10/07 10:39:33;;;;;;;3.53;2.23;;;;;;;;;;6109044;23;20665;-73
2022/10/07 10:42:00;;;;;;;2.80;1.92;;;;;;;;;;6109215;23;20109;-73
2022/10/07 10:44:31;;;;;;;2.80;2.08;;;;;;;;;;6109375;23;20002;-73
2022/10/07 10:47:04;;;;;;;3.17;2.20;;;;;;;;;;6108057;23;20021;-73
2022/10/07 10:49:36;;;;;;;5.15;2.42;;;;;;;;;;6107086;23;20009;-73
2022/10/07 10:52:18;;;;;;;2.28;1.95;;;;;;;;;;6108763;23;20005;-73
2022/10/07 10:55:02;;;;;;;3.17;2.00;;;;;;;;;;6108570;23;20085;-72
2022/10/07 10:57:44;;;;;;;1.95;1.80;;;;;;;;;;6108908;23;20727;-74
2022/10/07 11:00:12;;;;;;;;;;;;;;;;;;6110551;23;20009;-73
2022/10/07 11:02:38;;;;;;;3.38;2.47;;;;;;;;;;6107324;23;20157;-73
2022/10/07 11:05:05;;;;;;;2.70;1.90;;;;;;;;;;6109653;23;20142;-73
2022/10/07 11:07:44;;;;;;;6.75;2.38;;;;;;;;;;6108341;23;20013;-74
2022/10/07 11:10:21;;;;;;;2.45;1.98;;;;;;;;;;6109785;23;20442;-74
2022/10/07 11:12:53;;;;;;;2.30;2.03;;;;;;;;;;6081850;23;20010;-74
2022/10/07 11:15:22;;;;;;;4.18;2.47;;;;;;;;;;6109068;23;20010;-73
2022/10/07 11:17:50;;;;;;;4.75;2.10;;;;;;;;;;6108988;23;20163;-73
2022/10/07 11:20:20;;;;;;;3.05;2.05;;;;;;;;;;6081416;23;20447;-73
2022/10/07 11:22:55;;;;;;;3.72;2.10;;;;;;;;;;6109547;23;20486;-74
2022/10/07 11:25:42;;;;;;;3.22;2.08;;;;;;;;;;6083637;23;20412;-73
2022/10/07 11:28:19;;;;;;;3.63;2.22;;;;;;;;;;6082593;23;20419;-74
2022/10/07 11:30:50;;;;;;;3.25;2.08;;;;;;;;;;6107650;23;20558;-74
2022/10/07 11:33:26;;;;;;;3.63;2.30;;;;;;;;;;6081227;23;20481;-73
2022/10/07 11:35:56;;;;;;;2.35;1.90;;;;;;;;;;6108939;23;20018;-73
2022/10/07 11:38:27;;;;;;;3.08;2.05;;;;;;;;;;6106333;23;20128;-72
2022/10/07 11:41:01;;;;;;;5.10;2.10;;;;;;;;;;6109211;23;20002;-73
2022/10/07 11:43:33;;;;;;;2.65;2.17;;;;;;;;;;6108803;23;20605;-74
2022/10/07 11:46:18;;;;;;;;;;;;;;;;;;;;;
2022/10/07 11:49:02;;;;;;;3.33;2.00;;;;;;;;;;6110431;23;20002;-89
2022/10/07 11:51:37;;;;;;;5.00;2.20;;;;;;;;;;6109092;23;20038;-75
2022/10/07 11:54:07;;;;;;;5.10;2.10;;;;;;;;;;6108285;23;20006;-76
2022/10/07 11:56:39;;;;;;;5.80;2.15;;;;;;;;;;6106360;23;20416;-83
2022/10/07 11:59:06;;;;;;;2.63;2.17;;;;;;;;;;6109197;23;20021;-76
2022/10/07 12:01:35;;;;;;;2.72;2.10;;;;;;;;;;6110783;23;20002;-76
2022/10/07 12:04:20;;;;;;;3.00;1.90;;;;;;;;;;6115213;23;20017;-76
2022/10/07 12:07:06;;;;;;;2.17;1.90;;;;;;;;;;6108484;23;20910;-74
2022/10/07 12:09:50;;;;;;;5.18;2.13;;;;;;;;;;6109631;23;20005;-74
2022/10/07 12:12:21;;;;;;;2.72;1.92;;;;;;;;;;6084940;23;20002;-76
2022/10/07 12:14:58;;;;;;;4.03;2.27;;;;;;;;;;6110698;23;20180;-74
2022/10/07 12:17:29;;;;;;;2.33;2.13;;;;;;;;;;6109426;23;20324;-74
2022/10/07 12:20:14;;;;;;;2.50;2.03;;;;;;;;;;6108983;23;20006;-75
2022/10/07 12:22:41;;;;;;;2.28;1.95;;;;;;;;;;6110200;23;20315;-75
2022/10/07 12:25:27;;;;;;;3.05;2.05;;;;;;;;;;6109863;23;20006;-75
2022/10/07 12:27:54;;;;;;;2.90;2.30;;;;;;;;;;6109478;23;20046;-74
2022/10/07 12:30:38;;;;;;;3.45;1.85;;;;;;;;;;6109482;23;20163;-75
2022/10/07 12:33:28;;;;;;;2.67;2.45;;;;;;;;;;6108376;23;20010;-74
2022/10/07 12:35:54;;;;;;;2.45;2.08;;;;;;;;;;6058510;23;20470;-73
2022/10/07 12:38:24;;;;;;;4.43;2.78;;;;;;;;;;6111650;23;20320;-74
2022/10/07 12:40:57;;;;;;;3.25;2.58;;;;;;;;;;6112772;23;20043;-73
2022/10/07 12:43:38;;;;;;;2.65;2.08;;;;;;;;;;6087533;23;20525;-72
2022/10/07 12:46:06;;;;;;;3.58;2.45;;;;;;;;;;6109186;23;20342;-74
2022/10/07 12:48:36;;;;;;;4.63;2.08;;;;;;;;;;6109456;23;20442;-73
2022/10/07 12:51:03;;;;;;;2.55;2.08;;;;;;;;;;6109366;23;20069;-73
2022/10/07 12:53:33;;;;;;;3.35;2.00;;;;;;;;;;6108372;23;20017;-74
2022/10/07 12:55:59;;;;;;;2.85;1.83;;;;;;;;;;6109647;23;20022;-74
2022/10/07 13:01:16;;;;;;;3.67;2.10;;;;;;;;;;6109917;23;20072;-75
2022/10/07 13:03:53;;;;;;;2.50;2.30;;;;;;;;;;6107596;23;20034;-74
2022/10/07 13:06:37;;;;;;;2.78;1.80;;;;;;;;;;6108664;23;20018;-74
2022/10/07 13:09:25;;;;;;;2.63;2.13;;;;;;;;;;6109501;23;20145;-74
2022/10/07 13:11:58;;;;;;;3.58;2.08;;;;;;;;;;6109164;23;20447;-73
2022/10/07 13:14:34;;;;;;;3.20;2.33;;;;;;;;;;6108276;23;20442;-73
2022/10/07 13:17:03;;;;;;;3.13;2.15;;;;;;;;;;6109059;23;20006;-73
2022/10/07 13:19:41;;;;;;;2.78;2.00;;;;;;;;;;6108939;23;20028;-73
2022/10/07 13:22:15;;;;;;;2.55;1.98;;;;;;;;;;6108528;23;20513;-73
2022/10/07 13:24:46;;;;;;;3.13;2.10;;;;;;;;;;6110320;23;20080;-73
2022/10/07 13:27:13;;;;;;;;;;;;;;;;;;6109833;23;20010;-73
2022/10/07 13:29:40;;;;;;;3.08;2.20;;;;;;;;;;6109931;23;19983;-74
2022/10/07 13:32:09;;;;;;;3.08;2.08;;;;;;;;;;6109835;23;20316;-73
2022/10/07 13:34:36;;;;;;;2.47;2.17;;;;;;;;;;6107833;23;20001;-73
2022/10/07 13:37:03;;;;;;;1.80;1.70;;;;;;;;;;6109770;23;20094;-73
2022/10/07 13:39:29;;;;;;;3.75;2.13;;;;;;;;;;6110214;23;20029;-73
2022/10/07 13:42:00;;;;;;;2.35;2.10;;;;;;;;;;6109987;23;20422;-73
2022/10/07 13:44:27;;;;;;;2.75;1.95;;;;;;;;;;6109337;23;20502;-73
2022/10/07 13:47:02;;;;;;;4.15;2.22;;;;;;;;;;6107634;23;20234;-73
2022/10/07 13:49:39;;;;;;;2.75;2.50;;;;;;;;;;6110087;23;20006;-73
2022/10/07 13:52:06;;;;;;;4.72;2.30;;;;;;;;;;6109997;23;20002;-73
2022/10/07 13:54:33;;;;;;;2.50;2.00;;;;;;;;;;6109327;23;20067;-73
2022/10/07 13:57:01;;;;;;;2.40;2.20;;;;;;;;;;6108461;23;20001;-73
2022/10/07 13:59:27;;;;;;;2.72;2.17;;;;;;;;;;6108937;23;20812;-75
2022/10/07 14:01:56;;;;;;;2.20;2.00;;;;;;;;;;6108629;23;20029;-73
2022/10/07 14:04:24;;;;;;;2.20;1.98;;;;;;;;;;6107420;23;20030;-73
2022/10/07 14:07:15;;;;;;;3.17;2.28;;;;;;;;;;6109477;23;20013;-77
2022/10/07 14:09:44;;;;;;;2.73;2.10;;;;;;;;;;6109795;23;20435;-74
2022/10/07 14:12:26;;;;;;;2.65;2.30;;;;;;;;;;6110061;23;20010;-74
2022/10/07 14:14:54;;;;;;;3.45;2.10;;;;;;;;;;6107123;23;20080;-74
2022/10/07 14:17:26;;;;;;;4.82;2.38;;;;;;;;;;6108241;23;20017;-74
2022/10/07 14:19:53;;;;;;;3.10;2.50;;;;;;;;;;6108789;23;20029;-74
2022/10/07 14:22:25;;;;;;;3.90;2.30;;;;;;;;;;6108362;23;20093;-74
2022/10/07 14:24:52;;;;;;;2.85;2.35;;;;;;;;;;6107792;23;20018;-74
2022/10/07 14:27:38;;;;;;;3.75;2.55;;;;;;;;;;6108986;23;20535;-74
2022/10/07 14:30:23;;;;;;;3.08;2.40;;;;;;;;;;6109171;23;20608;-75
2022/10/07 14:36:14;;;;;;;6.15;2.53;;;;;;;;;;6107954;23;20374;-74
2022/10/07 14:38:41;;;;;;;7.07;2.65;;;;;;;;;;6108130;23;20018;-76
2022/10/07 14:41:09;;;;;;;2.72;2.22;;;;;;;;;;6109228;23;20013;-75
2022/10/07 14:43:36;;;;;;;2.90;2.55;;;;;;;;;;6110028;23;20013;-75
2022/10/07 14:46:10;;;;;;;2.65;2.25;;;;;;;;;;6107126;23;20417;-75
2022/10/07 14:48:37;;;;;;;12.80;2.97;;;;;;;;;;6108524;23;20140;-75
2022/10/07 14:51:03;;;;;;;5.53;2.20;;;;;;;;;;6108911;23;20006;-75
2022/10/07 14:53:29;;;;;;;4.57;2.00;;;;;;;;;;6109373;23;20398;-75
2022/10/07 14:55:56;;;;;;;4.25;2.53;;;;;;;;;;6106472;23;20045;-75
2022/10/07 14:58:24;;;;;;;4.65;2.30;;;;;;;;;;6108037;23;20013;-75
2022/10/07 15:00:50;;;;;;;3.53;2.08;;;;;;;;;;6109055;23;20010;-75
2022/10/07 15:03:17;;;;;;;3.63;2.40;;;;;;;;;;6107338;23;20073;-76
2022/10/07 15:05:43;;;;;;;3.60;2.30;;;;;;;;;;6107364;23;20082;-75
2022/10/07 15:08:12;;;;;;;3.63;2.17;;;;;;;;;;6081614;23;20598;-76
2022/10/07 15:10:42;;;;;;;5.25;2.92;;;;;;;;;;6109120;23;20603;-76